Time;durP1;ratioP1;P1;durP2;ratioP2;P2;SDS_P1;SDS_P2;PMS_P1;PMS_P2;Temp;Humidity;BMP_temperature;BMP_pressure;BME280_temperature;BME280_humidity;BME280_pressure;Samples;Min_cycle;Max_cycle;Signal;HPM_P1;HPM_P2
2022/06/03 00:00:24;;;;;;;;;;;;;;;;;;5074136;28;1981;-73
2022/06/03 00:02:57;;;;;;;;;;;;;;;;;;5073621;28;941;-74
2022/06/03 00:05:27;;;;;;;;;;;;;;;;;;5074067;28;1324;-73
2022/06/03 00:07:56;;;;;;;;;;;;;;;;;;5073810;28;941;-73
2022/06/03 00:10:34;;;;;;;;;;;;;;;;;;5073895;28;771;-73
2022/06/03 00:13:06;;;;;;;;;;;;;;;;;;5074011;28;1063;-73
2022/06/03 00:15:39;;;;;;;;;;;;;;;;;;5073864;28;1338;-73
2022/06/03 00:18:18;;;;;;;;;;;;;;;;;;5073830;28;1095;-73
2022/06/03 00:20:47;;;;;;;;;;;;;;;;;;5073821;28;1922;-73
2022/06/03 00:23:20;;;;;;;;;;;;;;;;;;5073899;28;989;-73
2022/06/03 00:25:52;;;;;;;;;;;;;;;;;;5073504;28;1306;-73
2022/06/03 00:28:24;;;;;;;;;;;;;;;;;;5073617;28;1091;-73
2022/06/03 00:30:53;;;;;;;;;;;;;;;;;;5073866;28;1044;-73
2022/06/03 00:33:34;;;;;;;;;;;;;;;;;;5073776;28;1071;-72
2022/06/03 00:36:03;;;;;;;;;;;;;;;;;;5064551;28;1126;-73
2022/06/03 00:38:38;;;;;;;;;;;;;;;;;;5072200;28;877;-73
2022/06/03 00:41:19;;;;;;;;;;;;;;;;;;5073561;28;1973;-73
2022/06/03 00:43:49;;;;;;;;;;;;;;;;;;5074958;28;1325;-73
2022/06/03 00:46:20;;;;;;;;;;;;;;;;;;5078792;28;791;-73
2022/06/03 00:48:50;;;;;;;;;;;;;;;;;;5077490;28;1083;-73
2022/06/03 00:51:20;;;;;;;;;;;;;;;;;;5081230;28;1064;-73
2022/06/03 00:53:58;;;;;;;;;;;;;;;;;;5072970;28;1422;-73
2022/06/03 00:56:28;;;;;;;;;;;;;;;;;;5072722;28;1001;-73
2022/06/03 00:58:58;;;;;;;;;;;;;;;;;;5073233;28;1055;-73
2022/06/03 01:01:28;;;;;;;;;;;;;;;;;;5073036;28;1918;-73
2022/06/03 01:04:03;;;;;;;;;;;;;;;;;;5072554;28;1566;-73
2022/06/03 01:06:33;;;;;;;;;;;;;;;;;;5072619;28;1047;-73
2022/06/03 01:09:03;;;;;;;;;;;;;;;;;;5072948;28;1119;-73
2022/06/03 01:11:41;;;;;;;;;;;;;;;;;;5072914;28;830;-73
2022/06/03 01:14:13;;;;;;;;;;;;;;;;;;5072710;28;1312;-73
2022/06/03 01:16:49;;;;;;;;;;;;;;;;;;5072454;28;933;-73
2022/06/03 01:19:16;;;;;;;;;;;;;;;;;;5072807;28;956;-73
2022/06/03 01:21:45;;;;;;;;;;;;;;;;;;5072551;28;1910;-73
2022/06/03 01:24:26;;;;;;;;;;;;;;;;;;5072465;28;1366;-73
2022/06/03 01:27:11;;;;;;;;;;;;;;;;;;5072549;28;1103;-73
2022/06/03 01:29:41;;;;;;;;;;;;;;;;;;5072599;28;957;-73
2022/06/03 01:32:22;;;;;;;;;;;;;;;;;;5070646;28;2061;-74
2022/06/03 01:34:52;;;;;;;;;;;;;;;;;;5071673;28;1853;-72
2022/06/03 01:37:19;;;;;;;;;;;;;;;;;;5069704;28;2085;-72
2022/06/03 01:42:27;;;;;;;;;;;;;;;;;;5040839;28;1906;-71
2022/06/03 01:44:58;;;;;;;;;;;;;;;;;;5052371;28;1082;-69
2022/06/03 01:47:39;;;;;;;;;;;;;;;;;;5052341;28;845;-70
2022/06/03 01:50:14;;;;;;;;;;;;;;;;;;5052257;28;1351;-69
2022/06/03 01:53:04;;;;;;;;;;;;;;;;;;5035872;28;1960;-68
2022/06/03 01:55:35;;;;;;;;;;;;;;;;;;5002078;28;1199;-68
2022/06/03 01:58:08;;;;;;;;;;;;;;;;;;5032212;28;1210;-68
2022/06/03 02:00:35;;;;;;;;;;;;;;;;;;5031932;28;1914;-68
2022/06/03 02:03:20;;;;;;;;;;;;;;;;;;5031446;28;803;-69
2022/06/03 02:06:10;;;;;;;;;;;;;;;;;;5032028;28;890;-68
2022/06/03 02:09:03;;;;;;;;;;;;;;;;;;5031858;28;1259;-69
2022/06/03 02:11:48;;;;;;;;;;;;;;;;;;4976907;28;1443;-68
2022/06/03 02:14:24;;;;;;;;;;;;;;;;;;4994337;28;1116;-68
2022/06/03 02:17:20;;;;;;;;;;;;;;;;;;5011746;28;1068;-68
2022/06/03 02:19:54;;;;;;;;;;;;;;;;;;4951384;28;1315;-68
2022/06/03 02:22:33;;;;;;;;;;;;;;;;;;5000393;28;1124;-68
2022/06/03 02:25:08;;;;;;;;;;;;;;;;;;4993942;28;1322;-68
2022/06/03 02:27:49;;;;;;;;;;;;;;;;;;5011730;28;1119;-68
2022/06/03 02:30:30;;;;;;;;;;;;;;;;;;5002352;28;1522;-68
2022/06/03 02:33:15;;;;;;;;;;;;;;;;;;5028174;28;1138;-68
2022/06/03 02:35:53;;;;;;;;;;;;;;;;;;5031429;28;859;-68
2022/06/03 02:38:26;;;;;;;;;;;;;;;;;;5031182;28;1052;-68
2022/06/03 02:41:01;;;;;;;;;;;;;;;;;;5030794;28;1972;-68
2022/06/03 02:43:54;;;;;;;;;;;;;;;;;;5031406;28;957;-68
2022/06/03 02:46:38;;;;;;;;;;;;;;;;;;5030876;28;1200;-68
2022/06/03 02:49:17;;;;;;;;;;;;;;;;;;5031040;28;1131;-68
2022/06/03 02:52:00;;;;;;;;;;;;;;;;;;5031277;28;1308;-68
2022/06/03 02:54:30;;;;;;;;;;;;;;;;;;5031333;28;857;-68
2022/06/03 02:57:11;;;;;;;;;;;;;;;;;;5031064;28;954;-68
2022/06/03 02:59:56;;;;;;;;;;;;;;;;;;5030473;28;1064;-68
2022/06/03 03:02:32;;;;;;;;;;;;;;;;;;5030417;28;1983;-68
2022/06/03 03:05:03;;;;;;;;;;;;;;;;;;5027276;28;1504;-68
2022/06/03 03:07:37;;;;;;;;;;;;;;;;;;5010937;28;1064;-69
2022/06/03 03:10:10;;;;;;;;;;;;;;;;;;4993515;28;1322;-68
2022/06/03 03:12:41;;;;;;;;;;;;;;;;;;5011376;28;1056;-68
2022/06/03 03:15:12;;;;;;;;;;;;;;;;;;4993449;28;954;-68
2022/06/03 03:17:52;;;;;;;;;;;;;;;;;;4993485;28;1303;-68
2022/06/03 03:20:22;;;;;;;;;;;;;;;;;;5010889;28;1972;-68
2022/06/03 03:22:53;;;;;;;;;;;;;;;;;;5010844;28;1262;-68
2022/06/03 03:25:37;;;;;;;;;;;;;;;;;;5011012;28;1104;-68
2022/06/03 03:28:17;;;;;;;;;;;;;;;;;;4993031;28;1436;-68
2022/06/03 03:30:46;;;;;;;;;;;;;;;;;;5010869;28;1324;-68
2022/06/03 03:33:19;;;;;;;;;;;;;;;;;;5010949;28;771;-68
2022/06/03 03:35:54;;;;;;;;;;;;;;;;;;5010994;28;1048;-68
2022/06/03 03:38:28;;;;;;;;;;;;;;;;;;5010807;28;1103;-68
2022/06/03 03:41:01;;;;;;;;;;;;;;;;;;5010875;28;1980;-68
2022/06/03 03:43:47;;;;;;;;;;;;;;;;;;5010741;28;870;-69
2022/06/03 03:46:30;;;;;;;;;;;;;;;;;;5017980;28;1136;-68
2022/06/03 03:49:23;;;;;;;;;;;;;;;;;;5012695;28;1144;-68
2022/06/03 03:51:58;;;;;;;;;;;;;;;;;;5030321;28;1403;-68
2022/06/03 03:54:36;;;;;;;;;;;;;;;;;;5030644;28;1118;-68
2022/06/03 03:57:21;;;;;;;;;;;;;;;;;;5030121;28;822;-68
2022/06/03 03:59:58;;;;;;;;;;;;;;;;;;5030152;28;720;-68
2022/06/03 04:02:32;;;;;;;;;;;;;;;;;;5029851;28;1974;-68
2022/06/03 04:05:10;;;;;;;;;;;;;;;;;;5030614;28;616;-68
2022/06/03 04:07:49;;;;;;;;;;;;;;;;;;5030224;28;1071;-68
2022/06/03 04:10:24;;;;;;;;;;;;;;;;;;5030281;28;1310;-68
2022/06/03 04:12:57;;;;;;;;;;;;;;;;;;5033359;28;953;-68
2022/06/03 04:15:39;;;;;;;;;;;;;;;;;;5016287;28;1349;-68
2022/06/03 04:18:20;;;;;;;;;;;;;;;;;;5015865;28;1049;-68
2022/06/03 04:21:05;;;;;;;;;;;;;;;;;;5033743;28;1914;-68
2022/06/03 04:23:39;;;;;;;;;;;;;;;;;;5033594;28;929;-68
2022/06/03 04:26:19;;;;;;;;;;;;;;;;;;5015740;28;1509;-68
2022/06/03 04:28:52;;;;;;;;;;;;;;;;;;5033706;28;1029;-68
2022/06/03 04:31:25;;;;;;;;;;;;;;;;;;5037173;28;2190;-68
2022/06/03 04:34:00;;;;;;;;;;;;;;;;;;5053425;28;1149;-68
2022/06/03 04:36:44;;;;;;;;;;;;;;;;;;5053312;28;1119;-69
2022/06/03 04:39:29;;;;;;;;;;;;;;;;;;5053351;28;925;-68
2022/06/03 04:42:17;;;;;;;;;;;;;;;;;;5052943;28;1973;-68
2022/06/03 04:44:57;;;;;;;;;;;;;;;;;;5053272;28;1100;-68
2022/06/03 04:47:45;;;;;;;;;;;;;;;;;;5036041;28;1234;-68
2022/06/03 04:50:26;;;;;;;;;;;;;;;;;;5015508;28;1392;-67
2022/06/03 04:53:10;;;;;;;;;;;;;;;;;;5033180;28;1068;-67
2022/06/03 04:55:52;;;;;;;;;;;;;;;;;;5032529;28;1613;-68
2022/06/03 04:58:32;;;;;;;;;;;;;;;;;;5031171;28;1473;-68
2022/06/03 05:01:13;;;;;;;;;;;;;;;;;;5012482;28;1926;-67
2022/06/03 05:03:55;;;;;;;;;;;;;;;;;;5009982;28;1193;-68
2022/06/03 05:06:32;;;;;;;;;;;;;;;;;;5013154;28;1116;-70
2022/06/03 05:09:09;;;;;;;;;;;;;;;;;;4995522;28;855;-68
2022/06/03 05:11:53;;;;;;;;;;;;;;;;;;4995644;28;1420;-67
2022/06/03 05:14:29;;;;;;;;;;;;;;;;;;5012991;28;1194;-68
2022/06/03 05:17:16;;;;;;;;;;;;;;;;;;5012872;28;1076;-67
2022/06/03 05:19:51;;;;;;;;;;;;;;;;;;4980095;28;1167;-68
2022/06/03 05:22:24;;;;;;;;;;;;;;;;;;5012718;28;1990;-68
2022/06/03 05:25:05;;;;;;;;;;;;;;;;;;5012506;28;902;-68
2022/06/03 05:27:49;;;;;;;;;;;;;;;;;;4995067;28;1052;-68
2022/06/03 05:30:28;;;;;;;;;;;;;;;;;;4999016;28;1318;-68
2022/06/03 05:33:05;;;;;;;;;;;;;;;;;;5012631;28;1104;-68
2022/06/03 05:35:36;;;;;;;;;;;;;;;;;;5012693;28;1076;-68
2022/06/03 05:38:05;;;;;;;;;;;;;;;;;;5012395;28;1060;-68
2022/06/03 05:40:49;;;;;;;;;;;;;;;;;;5012560;28;1413;-68
2022/06/03 05:43:33;;;;;;;;;;;;;;;;;;5012487;28;1972;-68
2022/06/03 05:46:05;;;;;;;;;;;;;;;;;;5017713;28;1144;-68
2022/06/03 05:48:35;;;;;;;;;;;;;;;;;;5032418;28;1132;-68
2022/06/03 05:51:05;;;;;;;;;;;;;;;;;;5032028;28;1382;-68
2022/06/03 05:53:34;;;;;;;;;;;;;;;;;;5032132;28;874;-68
2022/06/03 05:56:03;;;;;;;;;;;;;;;;;;5031945;28;1298;-68
2022/06/03 05:58:34;;;;;;;;;;;;;;;;;;5031818;28;1072;-68
2022/06/03 06:01:09;;;;;;;;;;;;;;;;;;5031058;28;1968;-68
2022/06/03 06:03:38;;;;;;;;;;;;;;;;;;5031996;28;1118;-68
2022/06/03 06:06:11;;;;;;;;;;;;;;;;;;5031740;28;915;-68
2022/06/03 06:08:39;;;;;;;;;;;;;;;;;;5031776;28;851;-68
2022/06/03 06:11:06;;;;;;;;;;;;;;;;;;5031569;28;1324;-68
2022/06/03 06:13:49;;;;;;;;;;;;;;;;;;5031703;28;929;-68
2022/06/03 06:16:16;;;;;;;;;;;;;;;;;;5031557;28;970;-68
2022/06/03 06:18:43;;;;;;;;;;;;;;;;;;5031802;28;1076;-68
2022/06/03 06:21:19;;;;;;;;;;;;;;;;;;5013672;28;1914;-68
2022/06/03 06:23:45;;;;;;;;;;;;;;;;;;5031470;28;949;-68
2022/06/03 06:26:25;;;;;;;;;;;;;;;;;;5031180;28;1076;-68
2022/06/03 06:28:55;;;;;;;;;;;;;;;;;;5031408;28;957;-68
2022/06/03 06:31:27;;;;;;;;;;;;;;;;;;5031133;28;1382;-68
2022/06/03 06:34:04;;;;;;;;;;;;;;;;;;5031345;28;984;-68
2022/06/03 06:36:37;;;;;;;;;;;;;;;;;;5031262;28;1056;-69
2022/06/03 06:39:06;;;;;;;;;;;;;;;;;;5031014;28;1076;-69
2022/06/03 06:41:36;;;;;;;;;;;;;;;;;;5031237;28;1967;-69
2022/06/03 06:44:06;;;;;;;;;;;;;;;;;;5031148;28;973;-69
2022/06/03 06:46:35;;;;;;;;;;;;;;;;;;5013188;28;1149;-69
2022/06/03 06:49:06;;;;;;;;;;;;;;;;;;5031090;28;1406;-68
2022/06/03 06:51:41;;;;;;;;;;;;;;;;;;5031551;28;1293;-69
2022/06/03 06:54:08;;;;;;;;;;;;;;;;;;5031356;28;1115;-69
2022/06/03 06:56:37;;;;;;;;;;;;;;;;;;5013690;28;732;-69
2022/06/03 06:59:05;;;;;;;;;;;;;;;;;;5031047;28;818;-69
2022/06/03 07:01:33;;;;;;;;;;;;;;;;;;5030399;28;1975;-69
2022/06/03 07:04:00;;;;;;;;;;;;;;;;;;5029462;28;1487;-68
2022/06/03 07:06:36;;;;;;;;;;;;;;;;;;5012589;28;1495;-69
2022/06/03 07:09:17;;;;;;;;;;;;;;;;;;5010867;28;1136;-68
2022/06/03 07:11:47;;;;;;;;;;;;;;;;;;5011257;28;1366;-69
2022/06/03 07:14:14;;;;;;;;;;;;;;;;;;4993346;28;972;-68
2022/06/03 07:22:12;;;;;;;;;;;;;;;;;;5010843;28;1975;-69
2022/06/03 07:24:42;;;;;;;;;;;;;;;;;;5011119;28;1082;-69
2022/06/03 07:27:11;;;;;;;;;;;;;;;;;;5010768;28;1139;-69
2022/06/03 07:29:39;;;;;;;;;;;;;;;;;;5011302;28;628;-69
2022/06/03 07:32:08;;;;;;;;;;;;;;;;;;5009328;28;1390;-68
2022/06/03 07:34:37;;;;;;;;;;;;;;;;;;5010503;28;1135;-69
2022/06/03 07:37:05;;;;;;;;;;;;;;;;;;5008951;28;1024;-69
2022/06/03 07:39:44;;;;;;;;;;;;;;;;;;4993287;28;1236;-69
2022/06/03 07:42:13;;;;;;;;;;;;;;;;;;5010377;28;1919;-69
2022/06/03 07:44:42;;;;;;;;;;;;;;;;;;5010891;28;604;-69
2022/06/03 07:47:08;;;;;;;;;;;;;;;;;;5027490;28;1236;-69
2022/06/03 07:49:35;;;;;;;;;;;;;;;;;;5034609;28;1079;-69
2022/06/03 07:52:02;;;;;;;;;;;;;;;;;;5034077;28;1319;-69
2022/06/03 07:54:29;;;;;;;;;;;;;;;;;;5034412;28;853;-69
2022/06/03 07:57:01;;;;;;;;;;;;;;;;;;5034004;28;798;-70
2022/06/03 07:59:29;;;;;;;;;;;;;;;;;;5034086;28;1099;-69
2022/06/03 08:01:57;;;;;;;;;;;;;;;;;;5033695;28;1910;-69
2022/06/03 08:04:27;;;;;;;;;;;;;;;;;;5016340;28;1056;-70
2022/06/03 08:12:27;;;;;;;;;;;;;;;;;;5015963;28;1400;-69
2022/06/03 08:14:53;;;;;;;;;;;;;;;;;;5015749;28;1497;-70
2022/06/03 08:17:20;;;;;;;;;;;;;;;;;;5033648;28;928;-70
2022/06/03 08:19:46;;;;;;;;;;;;;;;;;;5033927;28;1119;-70
2022/06/03 08:22:13;;;;;;;;;;;;;;;;;;5033503;28;1910;-70
2022/06/03 08:24:39;;;;;;;;;;;;;;;;;;5015917;28;1470;-69
2022/06/03 08:27:07;;;;;;;;;;;;;;;;;;5033388;28;933;-70
2022/06/03 08:29:36;;;;;;;;;;;;;;;;;;5015703;28;1237;-69
2022/06/03 08:34:29;;;;;;;;;;;;;;;;;;5012532;28;1925;-73
2022/06/03 08:36:55;;;;;;;;;;;;;;;;;;5021260;28;1133;-73
2022/06/03 08:39:23;;;;;;;;;;;;;;;;;;5032986;28;1116;-73
2022/06/03 08:41:52;;;;;;;;;;;;;;;;;;5033506;28;1973;-73
2022/06/03 08:44:33;;;;;;;;;;;;;;;;;;5013464;28;1072;-73
2022/06/03 08:47:01;;;;;;;;;;;;;;;;;;5013586;28;768;-73
2022/06/03 08:49:41;;;;;;;;;;;;;;;;;;5013554;28;839;-73
2022/06/03 08:52:08;;;;;;;;;;;;;;;;;;5013250;28;1355;-73
2022/06/03 08:54:35;;;;;;;;;;;;;;;;;;5011137;28;1511;-73
2022/06/03 08:57:03;;;;;;;;;;;;;;;;;;4993244;28;1488;-73
2022/06/03 08:59:30;;;;;;;;;;;;;;;;;;4992557;28;784;-73
2022/06/03 09:01:57;;;;;;;;;;;;;;;;;;4993508;28;1914;-73
2022/06/03 09:04:25;;;;;;;;;;;;;;;;;;4993500;28;1064;-73
2022/06/03 09:06:53;;;;;;;;;;;;;;;;;;4993459;28;925;-73
2022/06/03 09:09:21;;;;;;;;;;;;;;;;;;4993537;28;1072;-73
2022/06/03 09:11:49;;;;;;;;;;;;;;;;;;4993563;28;1073;-73
2022/06/03 09:14:17;;;;;;;;;;;;;;;;;;4993401;28;1251;-73
2022/06/03 09:16:44;;;;;;;;;;;;;;;;;;4993396;28;1049;-73
2022/06/03 09:19:12;;;;;;;;;;;;;;;;;;4993429;28;859;-73
2022/06/03 09:21:41;;;;;;;;;;;;;;;;;;4993317;28;1088;-74
2022/06/03 09:24:09;;;;;;;;;;;;;;;;;;4993040;28;1922;-73
2022/06/03 09:26:37;;;;;;;;;;;;;;;;;;4992999;28;882;-74
2022/06/03 09:29:05;;;;;;;;;;;;;;;;;;4993321;28;886;-73
2022/06/03 09:31:32;;;;;;;;;;;;;;;;;;4993019;28;1077;-73
2022/06/03 09:33:58;;;;;;;;;;;;;;;;;;4993222;28;1323;-73
2022/06/03 09:36:25;;;;;;;;;;;;;;;;;;4992983;28;899;-73
2022/06/03 09:38:53;;;;;;;;;;;;;;;;;;4992949;28;1010;-74
2022/06/03 09:41:20;;;;;;;;;;;;;;;;;;4992940;28;1022;-73
2022/06/03 09:43:47;;;;;;;;;;;;;;;;;;4992784;28;1977;-74
2022/06/03 09:46:14;;;;;;;;;;;;;;;;;;4992583;28;1068;-74
2022/06/03 09:48:41;;;;;;;;;;;;;;;;;;4992814;28;1145;-74
2022/06/03 09:51:08;;;;;;;;;;;;;;;;;;4992718;28;1108;-74
2022/06/03 09:53:36;;;;;;;;;;;;;;;;;;4992571;28;1306;-74
2022/06/03 09:56:07;;;;;;;;;;;;;;;;;;4992693;28;953;-74
2022/06/03 09:58:33;;;;;;;;;;;;;;;;;;4992708;28;942;-74
2022/06/03 10:01:00;;;;;;;;;;;;;;;;;;4988983;28;1402;-74
2022/06/03 10:03:26;;;;;;;;;;;;;;;;;;4972876;28;1907;-73
2022/06/03 10:05:53;;;;;;;;;;;;;;;;;;4973365;28;1049;-74
2022/06/03 10:08:19;;;;;;;;;;;;;;;;;;4972665;28;1121;-74
2022/06/03 10:13:34;;;;;;;;;;;;;;;;;;4972796;28;1325;-72
2022/06/03 10:16:00;;;;;;;;;;;;;;;;;;4973233;28;1021;-72
2022/06/03 10:18:31;;;;;;;;;;;;;;;;;;4976060;28;1116;-73
2022/06/03 10:20:58;;;;;;;;;;;;;;;;;;4983068;28;2252;-71
2022/06/03 10:23:24;;;;;;;;;;;;;;;;;;4991302;28;1910;-71
2022/06/03 10:25:51;;;;;;;;;;;;;;;;;;4990508;28;2062;-73
2022/06/03 10:28:18;;;;;;;;;;;;;;;;;;4990697;28;1447;-71
2022/06/03 10:30:46;;;;;;;;;;;;;;;;;;4991979;28;1155;-72
2022/06/03 10:33:15;;;;;;;;;;;;;;;;;;4990712;28;1527;-72
2022/06/03 10:35:42;;;;;;;;;;;;;;;;;;4993941;28;1167;-71
2022/06/03 10:38:09;;;;;;;;;;;;;;;;;;4991769;28;1422;-72
2022/06/03 10:40:39;;;;;;;;;;;;;;;;;;4991796;28;1222;-72
2022/06/03 10:43:05;;;;;;;;;;;;;;;;;;4989997;28;1968;-71
2022/06/03 10:45:32;;;;;;;;;;;;;;;;;;4976677;28;1334;-73
2022/06/03 10:48:00;;;;;;;;;;;;;;;;;;4991600;28;1092;-72
2022/06/03 10:50:27;;;;;;;;;;;;;;;;;;4991645;28;835;-72
2022/06/03 11:01:27;;;;;;;;;;;;;;;;;;4982218;28;1405;-72
2022/06/03 11:03:55;;;;;;;;;;;;;;;;;;4991798;28;1980;-73
2022/06/03 11:06:23;;;;;;;;;;;;;;;;;;4991652;28;1135;-73
2022/06/03 11:08:51;;;;;;;;;;;;;;;;;;4991663;28;1095;-73
2022/06/03 11:11:30;;;;;;;;;;;;;;;;;;4991583;28;1088;-72
2022/06/03 11:13:56;;;;;;;;;;;;;;;;;;4991752;28;1507;-73
2022/06/03 11:16:24;;;;;;;;;;;;;;;;;;4991017;28;1028;-74
2022/06/03 11:18:50;;;;;;;;;;;;;;;;;;4991902;28;1067;-73
2022/06/03 11:21:19;;;;;;;;;;;;;;;;;;4990855;28;1127;-73
2022/06/03 11:23:46;;;;;;;;;;;;;;;;;;4991446;28;1982;-72
2022/06/03 11:26:12;;;;;;;;;;;;;;;;;;4991249;28;875;-72
2022/06/03 11:28:39;;;;;;;;;;;;;;;;;;4991410;28;1108;-73
2022/06/03 11:31:06;;;;;;;;;;;;;;;;;;4991358;28;1127;-73
2022/06/03 11:33:34;;;;;;;;;;;;;;;;;;4989886;28;1985;-72
2022/06/03 11:36:01;;;;;;;;;;;;;;;;;;4988620;28;1993;-73
2022/06/03 11:38:30;;;;;;;;;;;;;;;;;;4988848;28;1833;-72
2022/06/03 11:40:57;;;;;;;;;;;;;;;;;;4987712;28;1991;-73
2022/06/03 11:43:25;;;;;;;;;;;;;;;;;;4990550;28;2110;-72
2022/06/03 11:45:52;;;;;;;;;;;;;;;;;;4990947;28;1103;-71
2022/06/03 11:48:18;;;;;;;;;;;;;;;;;;4989076;28;1583;-72
2022/06/03 11:50:45;;;;;;;;;;;;;;;;;;4989482;28;1675;-72
2022/06/03 11:53:11;;;;;;;;;;;;;;;;;;4990862;28;1322;-73
2022/06/03 11:55:39;;;;;;;;;;;;;;;;;;4989458;28;1465;-72
2022/06/03 11:58:06;;;;;;;;;;;;;;;;;;4989867;28;1300;-72
2022/06/03 12:00:33;;;;;;;;;;;;;;;;;;4990963;28;1163;-73
2022/06/03 12:03:08;;;;;;;;;;;;;;;;;;4990893;28;1910;-72
2022/06/03 12:05:35;;;;;;;;;;;;;;;;;;4991101;28;914;-72
2022/06/03 12:08:03;;;;;;;;;;;;;;;;;;4990741;28;1131;-73
2022/06/03 12:10:30;;;;;;;;;;;;;;;;;;4987997;28;1169;-73
2022/06/03 12:13:15;;;;;;;;;;;;;;;;;;4980211;28;1495;-73
2022/06/03 12:15:43;;;;;;;;;;;;;;;;;;4984813;28;1300;-74
2022/06/03 12:18:17;;;;;;;;;;;;;;;;;;4981910;28;1216;-72
2022/06/03 12:20:51;;;;;;;;;;;;;;;;;;4981039;28;1132;-73
2022/06/03 12:23:36;;;;;;;;;;;;;;;;;;4978709;28;1978;-73
2022/06/03 12:26:06;;;;;;;;;;;;;;;;;;4986978;28;1169;-74
2022/06/03 12:28:34;;;;;;;;;;;;;;;;;;4990825;28;1109;-74
2022/06/03 12:31:01;;;;;;;;;;;;;;;;;;4990909;28;934;-74
2022/06/03 12:33:28;;;;;;;;;;;;;;;;;;4993004;28;1311;-74
2022/06/03 12:35:56;;;;;;;;;;;;;;;;;;4992730;28;1069;-75
2022/06/03 12:38:31;;;;;;;;;;;;;;;;;;4993310;28;1164;-76
2022/06/03 12:40:58;;;;;;;;;;;;;;;;;;4994067;28;930;-74
2022/06/03 12:43:24;;;;;;;;;;;;;;;;;;4993463;28;1976;-74
2022/06/03 12:45:58;;;;;;;;;;;;;;;;;;4993459;28;911;-74
2022/06/03 12:48:36;;;;;;;;;;;;;;;;;;4998049;28;1107;-74
2022/06/03 12:51:13;;;;;;;;;;;;;;;;;;5005018;28;1053;-75
2022/06/03 12:53:41;;;;;;;;;;;;;;;;;;5012227;28;1910;-74
2022/06/03 12:56:09;;;;;;;;;;;;;;;;;;5012733;28;799;-73
2022/06/03 12:58:41;;;;;;;;;;;;;;;;;;5013061;28;1005;-74
2022/06/03 13:01:09;;;;;;;;;;;;;;;;;;4977647;28;1761;-75
2022/06/03 13:03:39;;;;;;;;;;;;;;;;;;4974012;28;1412;-74
2022/06/03 13:06:08;;;;;;;;;;;;;;;;;;4989489;28;1555;-73
2022/06/03 13:09:34;;;;;;;;;;;;;;;;;;4991215;28;1320;-73
2022/06/03 13:11:44;;;;;;;;;;;;;;;;;;4970979;28;1428;-73
2022/06/03 13:14:19;;;;;;;;;;;;;;;;;;4993076;28;1981;-73
2022/06/03 13:16:47;;;;;;;;;;;;;;;;;;4993043;28;850;-74
2022/06/03 13:19:34;;;;;;;;;;;;;;;;;;4992998;28;796;-73
2022/06/03 13:22:07;;;;;;;;;;;;;;;;;;4984994;28;1413;-74
2022/06/03 13:24:34;;;;;;;;;;;;;;;;;;4993086;28;767;-74
2022/06/03 13:27:11;;;;;;;;;;;;;;;;;;4992577;28;1044;-74
2022/06/03 13:30:10;;;;;;;;;;;;;;;;;;4992878;28;1052;-74
2022/06/03 13:32:58;;;;;;;;;;;;;;;;;;4992588;28;1409;-74
2022/06/03 13:35:27;;;;;;;;;;;;;;;;;;4984691;28;1997;-74
2022/06/03 13:38:08;;;;;;;;;;;;;;;;;;4992265;28;1069;-74
2022/06/03 13:40:35;;;;;;;;;;;;;;;;;;4975119;28;1181;-75
2022/06/03 13:43:25;;;;;;;;;;;;;;;;;;4992627;28;1285;-74
2022/06/03 13:45:55;;;;;;;;;;;;;;;;;;4991894;28;950;-75
2022/06/03 13:48:22;;;;;;;;;;;;;;;;;;4992150;28;1085;-75
2022/06/03 13:50:50;;;;;;;;;;;;;;;;;;4992592;28;981;-75
2022/06/03 13:53:22;;;;;;;;;;;;;;;;;;4992343;28;1322;-75
2022/06/03 13:55:50;;;;;;;;;;;;;;;;;;4990412;28;1634;-74
2022/06/03 13:58:18;;;;;;;;;;;;;;;;;;4991474;28;1402;-74
2022/06/03 14:00:54;;;;;;;;;;;;;;;;;;4990550;28;1375;-72
2022/06/03 14:03:22;;;;;;;;;;;;;;;;;;4988811;28;1378;-73
2022/06/03 14:05:57;;;;;;;;;;;;;;;;;;4975464;28;1344;-74
2022/06/03 14:08:27;;;;;;;;;;;;;;;;;;4992593;28;1084;-72
2022/06/03 14:10:56;;;;;;;;;;;;;;;;;;4992743;28;756;-73
2022/06/03 14:13:24;;;;;;;;;;;;;;;;;;4992094;28;1338;-73
2022/06/03 14:15:54;;;;;;;;;;;;;;;;;;4992036;28;2029;-73
2022/06/03 14:18:35;;;;;;;;;;;;;;;;;;4991783;28;1041;-73
2022/06/03 14:21:01;;;;;;;;;;;;;;;;;;4971671;28;1918;-73
2022/06/03 14:23:30;;;;;;;;;;;;;;;;;;4991917;28;1332;-73
2022/06/03 14:25:58;;;;;;;;;;;;;;;;;;4991741;28;863;-73
2022/06/03 14:28:26;;;;;;;;;;;;;;;;;;4991405;28;886;-73
2022/06/03 14:30:53;;;;;;;;;;;;;;;;;;4991999;28;1057;-73
2022/06/03 14:33:20;;;;;;;;;;;;;;;;;;4991741;28;1328;-73
2022/06/03 14:35:47;;;;;;;;;;;;;;;;;;4991911;28;2052;-72
2022/06/03 14:38:16;;;;;;;;;;;;;;;;;;4992167;28;636;-72
2022/06/03 14:40:44;;;;;;;;;;;;;;;;;;4992022;28;799;-73
2022/06/03 14:43:10;;;;;;;;;;;;;;;;;;4990293;28;1533;-72
2022/06/03 14:45:38;;;;;;;;;;;;;;;;;;4991773;28;1206;-73
2022/06/03 14:48:06;;;;;;;;;;;;;;;;;;4989597;28;3097;-73
2022/06/03 14:50:32;;;;;;;;;;;;;;;;;;4991102;28;1373;-73
2022/06/03 14:52:59;;;;;;;;;;;;;;;;;;5001580;28;1493;-73
2022/06/03 14:55:26;;;;;;;;;;;;;;;;;;4993216;28;1980;-72
2022/06/03 14:57:55;;;;;;;;;;;;;;;;;;4990876;28;1155;-74
2022/06/03 15:00:33;;;;;;;;;;;;;;;;;;4991517;28;1017;-73
2022/06/03 15:03:01;;;;;;;;;;;;;;;;;;4990459;28;1369;-72
2022/06/03 15:05:29;;;;;;;;;;;;;;;;;;4991925;28;1373;-74
2022/06/03 15:07:57;;;;;;;;;;;;;;;;;;4991552;28;1163;-73
2022/06/03 15:10:24;;;;;;;;;;;;;;;;;;4992275;28;1096;-74
2022/06/03 15:12:51;;;;;;;;;;;;;;;;;;4991151;28;2004;-74
2022/06/03 15:15:22;;;;;;;;;;;;;;;;;;4992121;28;1965;-74
2022/06/03 15:17:48;;;;;;;;;;;;;;;;;;4990416;28;1653;-74
2022/06/03 15:20:15;;;;;;;;;;;;;;;;;;5027117;22;2428;-77
2022/06/03 15:22:43;;;;;;;;;;;;;;;;;;5044646;28;1257;-77
2022/06/03 15:25:14;;;;;;;;;;;;;;;;;;5070017;28;1177;-76
2022/06/03 15:27:41;;;;;;;;;;;;;;;;;;5052181;28;1652;-76
2022/06/03 15:30:07;;;;;;;;;;;;;;;;;;5061334;28;1412;-76
2022/06/03 15:32:39;;;;;;;;;;;;;;;;;;5052204;28;1400;-77
2022/06/03 15:35:06;;;;;;;;;;;;;;;;;;5055305;28;1918;-77
2022/06/03 15:37:32;;;;;;;;;;;;;;;;;;5056646;28;1467;-77
2022/06/03 15:39:58;;;;;;;;;;;;;;;;;;5042754;28;1468;-76
2022/06/03 15:42:26;;;;;;;;;;;;;;;;;;5056942;28;1471;-76
2022/06/03 15:44:52;;;;;;;;;;;;;;;;;;5062500;28;1225;-77
2022/06/03 15:47:20;;;;;;;;;;;;;;;;;;5053399;28;1433;-76
2022/06/03 15:49:50;;;;;;;;;;;;;;;;;;5055301;28;1449;-77
2022/06/03 15:52:17;;;;;;;;;;;;;;;;;;5058770;28;1138;-77
2022/06/03 15:54:54;;;;;;;;;;;;;;;;;;5048525;28;1906;-76
2022/06/03 15:57:22;;;;;;;;;;;;;;;;;;5058404;28;1403;-77
2022/06/03 16:00:02;;;;;;;;;;;;;;;;;;5041456;28;1395;-76
2022/06/03 16:02:28;;;;;;;;;;;;;;;;;;5040254;28;1323;-77
2022/06/03 16:04:58;;;;;;;;;;;;;;;;;;5045512;28;1461;-78
2022/06/03 16:07:29;;;;;;;;;;;;;;;;;;5063284;28;1494;-78
2022/06/03 16:09:59;;;;;;;;;;;;;;;;;;5071470;28;1415;-77
2022/06/03 16:12:28;;;;;;;;;;;;;;;;;;5055925;28;1076;-79
2022/06/03 16:15:02;;;;;;;;;;;;;;;;;;5055309;28;1971;-77
2022/06/03 16:17:33;;;;;;;;;;;;;;;;;;5059805;28;1349;-79
2022/06/03 16:20:03;;;;;;;;;;;;;;;;;;5057451;28;1431;-77
2022/06/03 16:22:31;;;;;;;;;;;;;;;;;;5060933;28;1472;-80
2022/06/03 16:24:59;;;;;;;;;;;;;;;;;;5050204;28;1349;-75
2022/06/03 16:27:28;;;;;;;;;;;;;;;;;;5055416;28;1103;-79
2022/06/03 16:30:01;;;;;;;;;;;;;;;;;;5052299;28;1483;-78
2022/06/03 16:32:30;;;;;;;;;;;;;;;;;;5068555;28;1438;-77
2022/06/03 16:34:58;;;;;;;;;;;;;;;;;;5068815;28;1910;-77
2022/06/03 16:37:29;;;;;;;;;;;;;;;;;;5065318;28;1197;-78
2022/06/03 16:39:56;;;;;;;;;;;;;;;;;;5073521;28;1302;-78
2022/06/03 16:42:23;;;;;;;;;;;;;;;;;;5067212;28;1703;-77
2022/06/03 16:44:51;;;;;;;;;;;;;;;;;;5033314;28;1206;-78
2022/06/03 16:47:18;;;;;;;;;;;;;;;;;;5032094;28;1439;-76
2022/06/03 16:49:51;;;;;;;;;;;;;;;;;;5055085;28;1420;-77
2022/06/03 16:52:24;;;;;;;;;;;;;;;;;;5063285;28;1411;-78
2022/06/03 16:54:56;;;;;;;;;;;;;;;;;;5058272;28;1969;-77
2022/06/03 16:57:24;;;;;;;;;;;;;;;;;;5031017;28;1097;-77
2022/06/03 17:00:05;;;;;;;;;;;;;;;;;;5050287;28;1372;-78
2022/06/03 17:02:31;;;;;;;;;;;;;;;;;;5024183;28;1152;-77
2022/06/03 17:04:57;;;;;;;;;;;;;;;;;;5040038;28;1246;-77
2022/06/03 17:07:31;;;;;;;;;;;;;;;;;;5047286;28;1408;-77
2022/06/03 17:09:58;;;;;;;;;;;;;;;;;;5043155;28;1432;-77
2022/06/03 17:12:25;;;;;;;;;;;;;;;;;;5048145;28;1405;-79
2022/06/03 17:14:51;;;;;;;;;;;;;;;;;;5023571;28;1970;-78
2022/06/03 17:17:21;;;;;;;;;;;;;;;;;;5030386;28;1144;-78
2022/06/03 17:19:47;;;;;;;;;;;;;;;;;;5029319;28;1659;-78
2022/06/03 17:22:17;;;;;;;;;;;;;;;;;;5058741;28;1551;-80
2022/06/03 17:24:57;;;;;;;;;;;;;;;;;;5030798;28;1537;-77
2022/06/03 17:27:30;;;;;;;;;;;;;;;;;;5050823;28;1052;-77
2022/06/03 17:29:59;;;;;;;;;;;;;;;;;;5056248;28;1475;-75
2022/06/03 17:32:26;;;;;;;;;;;;;;;;;;5059891;28;1220;-76
2022/06/03 17:34:59;;;;;;;;;;;;;;;;;;5051840;28;1906;-76
2022/06/03 17:37:31;;;;;;;;;;;;;;;;;;5050677;28;1469;-75
2022/06/03 17:40:01;;;;;;;;;;;;;;;;;;5051199;28;1395;-76
2022/06/03 17:42:29;;;;;;;;;;;;;;;;;;5036796;28;1311;-74
2022/06/03 17:45:01;;;;;;;;;;;;;;;;;;5032003;28;862;-76
2022/06/03 17:47:33;;;;;;;;;;;;;;;;;;5013435;28;1049;-76
2022/06/03 17:50:03;;;;;;;;;;;;;;;;;;5031656;28;1291;-76
2022/06/03 17:55:26;;;;;;;;;;;;;;;;;;5042266;28;1974;-75
2022/06/03 17:58:02;;;;;;;;;;;;;;;;;;5060123;28;1344;-76
2022/06/03 18:00:35;;;;;;;;;;;;;;;;;;5048131;28;1492;-76
2022/06/03 18:03:04;;;;;;;;;;;;;;;;;;5052863;28;1165;-76
2022/06/03 18:05:32;;;;;;;;;;;;;;;;;;5050389;28;1558;-77
2022/06/03 18:08:12;;;;;;;;;;;;;;;;;;5060044;28;1158;-76